createdAt,value
2023-01-26T00:00:09.903Z,16.13
2023-01-26T00:02:38.292Z,13.60
2023-01-26T00:05:06.929Z,15.18
2023-01-26T00:07:34.787Z,13.48
2023-01-26T00:10:02.657Z,13.10
2023-01-26T00:12:30.555Z,14.43
2023-01-26T00:14:59.731Z,13.65
2023-01-26T00:17:27.579Z,17.90
2023-01-26T00:19:56.233Z,14.30
2023-01-26T00:22:26.812Z,14.23
2023-01-26T00:24:54.701Z,14.13
2023-01-26T00:27:22.569Z,16.15
2023-01-26T00:29:50.863Z,14.43
2023-01-26T00:32:20.115Z,13.90
2023-01-26T00:34:49.179Z,13.93
2023-01-26T00:37:17.097Z,13.68
2023-01-26T00:39:44.978Z,15.32
2023-01-26T00:42:13.887Z,14.23
2023-01-26T00:44:43.279Z,14.98
2023-01-26T00:47:12.045Z,14.02
2023-01-26T00:49:41.309Z,16.35
2023-01-26T00:56:15.722Z,17.42
2023-01-26T00:58:45.464Z,13.10
2023-01-26T01:01:54.931Z,14.65
2023-01-26T01:04:22.858Z,14.65
2023-01-26T01:06:52.267Z,14.80
2023-01-26T01:09:20.168Z,14.57
2023-01-26T01:11:48.027Z,14.68
2023-01-26T01:14:16.178Z,15.15
2023-01-26T01:16:45.334Z,14.18
2023-01-26T01:19:14.718Z,13.05
2023-01-26T01:21:42.936Z,14.00
2023-01-26T01:24:12.920Z,13.93
2023-01-26T01:26:40.967Z,14.60
2023-01-26T01:29:09.139Z,14.10
2023-01-26T01:31:37.094Z,15.73
2023-01-26T01:34:05.054Z,14.40
2023-01-26T01:36:32.947Z,13.38
2023-01-26T01:39:01.262Z,15.60
2023-01-26T01:41:30.555Z,14.90
2023-01-26T01:44:19.842Z,14.85
2023-01-26T01:46:52.542Z,14.25
2023-01-26T01:49:21.498Z,14.07
2023-01-26T01:51:52.139Z,13.60
2023-01-26T01:54:23.885Z,13.25
2023-01-26T01:56:54.179Z,14.55
2023-01-26T01:59:22.428Z,14.13
2023-01-26T02:01:50.898Z,15.73
2023-01-26T02:04:18.778Z,17.70
2023-01-26T02:06:48.457Z,15.00
2023-01-26T02:09:30.764Z,14.65
2023-01-26T02:12:00.114Z,14.07
2023-01-26T02:14:28.464Z,16.45
2023-01-26T02:16:56.324Z,13.93
2023-01-26T02:19:28.050Z,14.00
2023-01-26T02:21:56.141Z,13.77
2023-01-26T02:24:26.349Z,13.63
2023-01-26T02:26:55.669Z,15.63
2023-01-26T02:29:23.955Z,14.38
2023-01-26T02:31:53.580Z,15.50
2023-01-26T02:34:21.985Z,13.15
2023-01-26T02:36:57.940Z,14.90
2023-01-26T02:39:30.979Z,12.85
2023-01-26T02:42:17.653Z,14.68
2023-01-26T02:44:45.643Z,13.68
2023-01-26T02:47:14.925Z,13.35
2023-01-26T02:49:47.766Z,14.18
2023-01-26T02:52:17.131Z,15.40
2023-01-26T02:55:04.544Z,14.00
2023-01-26T02:57:35.107Z,13.68
2023-01-26T03:00:03.499Z,14.43
2023-01-26T03:02:32.133Z,15.38
2023-01-26T03:05:00.038Z,14.85
2023-01-26T03:07:28.521Z,14.82
2023-01-26T03:09:58.695Z,13.05
2023-01-26T03:12:26.739Z,16.10
2023-01-26T03:15:09.889Z,14.55
2023-01-26T03:17:37.968Z,14.40
2023-01-26T03:20:25.352Z,15.13
2023-01-26T03:23:09.891Z,15.93
2023-01-26T03:25:55.373Z,13.43
2023-01-26T03:28:23.503Z,14.32
2023-01-26T03:30:53.422Z,14.98
2023-01-26T03:33:21.482Z,13.30
2023-01-26T03:35:50.064Z,12.57
2023-01-26T03:38:17.925Z,14.40
2023-01-26T03:41:07.357Z,13.43
2023-01-26T03:43:52.924Z,13.57
2023-01-26T03:46:39.541Z,14.23
2023-01-26T03:49:25.686Z,14.35
2023-01-26T03:52:13.014Z,14.35
2023-01-26T03:54:58.469Z,13.68
2023-01-26T03:57:26.385Z,16.77
2023-01-26T03:59:54.286Z,15.02
2023-01-26T04:02:42.655Z,13.93
2023-01-26T04:05:29.821Z,13.73
2023-01-26T04:08:20.811Z,13.75
2023-01-26T04:10:51.070Z,14.40
2023-01-26T04:13:37.210Z,12.18
2023-01-26T04:16:26.784Z,14.38
2023-01-26T04:19:13.524Z,14.02
2023-01-26T04:21:41.623Z,12.52
2023-01-26T04:24:16.936Z,14.38
2023-01-26T04:26:45.909Z,14.30
2023-01-26T04:29:18.653Z,14.43
2023-01-26T04:31:47.853Z,13.38
2023-01-26T04:34:21.879Z,13.38
2023-01-26T04:36:50.074Z,15.05
2023-01-26T04:39:19.577Z,13.13
2023-01-26T04:41:51.469Z,13.80
2023-01-26T04:44:20.804Z,12.80
2023-01-26T04:46:49.518Z,12.55
2023-01-26T04:49:18.653Z,13.60
2023-01-26T04:51:48.573Z,13.52
2023-01-26T04:54:17.614Z,14.43
2023-01-26T04:56:46.026Z,13.60
2023-01-26T04:59:14.503Z,15.32
2023-01-26T05:01:43.380Z,14.07
2023-01-26T05:04:12.755Z,12.43
2023-01-26T05:06:44.347Z,13.75
2023-01-26T05:09:13.665Z,16.00
2023-01-26T05:11:44.227Z,14.13
2023-01-26T05:14:40.608Z,12.07
2023-01-26T05:17:24.616Z,14.13
2023-01-26T05:20:01.014Z,13.63
2023-01-26T05:22:37.578Z,14.63
2023-01-26T05:25:25.431Z,13.80
2023-01-26T05:28:02.573Z,13.70
2023-01-26T05:30:30.668Z,14.27
2023-01-26T05:33:02.697Z,13.65
2023-01-26T05:35:30.651Z,12.35
2023-01-26T05:37:59.388Z,15.52
2023-01-26T05:40:29.919Z,16.02
2023-01-26T05:42:57.834Z,13.00
2023-01-26T05:46:03.942Z,12.60
2023-01-26T05:48:31.896Z,12.93
2023-01-26T05:51:01.275Z,13.88
2023-01-26T05:53:30.556Z,13.20
2023-01-26T05:55:59.994Z,15.70
2023-01-26T05:58:32.347Z,14.77
2023-01-26T06:01:00.283Z,14.43
2023-01-26T06:03:31.960Z,15.25
2023-01-26T06:05:59.908Z,14.63
2023-01-26T06:08:38.260Z,13.52
2023-01-26T06:11:25.851Z,14.15
2023-01-26T06:14:05.680Z,13.43
2023-01-26T06:16:34.420Z,13.90
2023-01-26T06:19:06.397Z,16.25
2023-01-26T06:21:34.632Z,14.75
2023-01-26T06:24:02.650Z,14.23
2023-01-26T06:26:32.080Z,14.88
2023-01-26T06:29:00.087Z,13.80
2023-01-26T06:31:31.420Z,28.48
2023-01-26T06:34:01.535Z,38.50
2023-01-26T06:36:29.555Z,42.97
2023-01-26T06:39:00.776Z,38.97
2023-01-26T06:41:29.202Z,40.78
2023-01-26T06:43:58.582Z,37.63
2023-01-26T06:46:26.650Z,50.55
2023-01-26T06:48:55.857Z,39.55
2023-01-26T06:51:53.591Z,68.00
2023-01-26T06:54:22.432Z,44.10
2023-01-26T06:57:09.575Z,71.47
2023-01-26T06:59:57.282Z,64.90
2023-01-26T07:02:36.615Z,64.95
2023-01-26T07:05:04.750Z,48.50
2023-01-26T07:07:32.610Z,46.20
2023-01-26T07:10:00.502Z,48.38
2023-01-26T07:12:36.984Z,52.65
2023-01-26T07:15:07.267Z,52.38
2023-01-26T07:17:35.150Z,54.47
2023-01-26T07:20:03.110Z,52.65
2023-01-26T07:22:31.022Z,45.30
2023-01-26T07:24:58.852Z,42.75
2023-01-26T07:27:26.720Z,49.78
2023-01-26T07:29:54.584Z,36.65
2023-01-26T07:32:23.805Z,44.08
2023-01-26T07:34:51.705Z,34.50
2023-01-26T07:37:19.587Z,32.95
2023-01-26T07:39:49.049Z,34.47
2023-01-26T07:42:16.900Z,35.30
2023-01-26T07:44:49.875Z,32.50
2023-01-26T07:47:19.988Z,30.88
2023-01-26T07:49:49.240Z,30.58
2023-01-26T07:52:17.189Z,32.30
2023-01-26T07:54:45.066Z,28.55
2023-01-26T07:57:13.641Z,30.65
2023-01-26T07:59:41.557Z,27.23
2023-01-26T08:02:10.545Z,27.42
2023-01-26T08:04:38.462Z,27.58
2023-01-26T08:07:07.703Z,29.55
2023-01-26T08:09:36.044Z,25.15
2023-01-26T08:12:03.971Z,25.83
2023-01-26T08:14:45.763Z,28.02
2023-01-26T08:17:15.465Z,24.55
2023-01-26T08:19:43.423Z,22.73
2023-01-26T08:22:12.620Z,25.10
2023-01-26T08:24:40.519Z,24.58
2023-01-26T08:27:08.405Z,24.42
2023-01-26T08:29:36.321Z,22.25
2023-01-26T08:32:04.305Z,23.58
2023-01-26T08:34:32.331Z,21.73
2023-01-26T08:37:00.238Z,21.33
2023-01-26T08:39:29.509Z,20.60
2023-01-26T08:41:57.422Z,22.67
2023-01-26T08:44:25.485Z,23.52
2023-01-26T08:46:53.323Z,22.17
2023-01-26T08:49:21.173Z,23.67
2023-01-26T08:51:49.012Z,20.80
2023-01-26T08:54:16.938Z,20.90
2023-01-26T08:56:46.133Z,20.98
2023-01-26T08:59:14.010Z,18.67
2023-01-26T09:01:41.907Z,22.00
2023-01-26T09:04:09.827Z,22.55
2023-01-26T09:06:37.697Z,23.27
2023-01-26T09:09:05.656Z,19.95
2023-01-26T09:11:33.515Z,21.05
2023-01-26T09:14:03.059Z,20.70
2023-01-26T09:16:30.999Z,19.77
2023-01-26T09:18:58.950Z,20.25
2023-01-26T09:21:26.807Z,19.85
2023-01-26T09:23:56.476Z,18.20
2023-01-26T09:26:24.424Z,21.92
2023-01-26T09:28:52.994Z,19.40
2023-01-26T09:31:22.304Z,18.77
2023-01-26T09:33:50.428Z,19.55
2023-01-26T09:36:18.341Z,19.02
2023-01-26T09:38:46.222Z,19.33
2023-01-26T09:41:22.549Z,18.63
2023-01-26T09:43:51.471Z,17.83
2023-01-26T09:46:23.077Z,21.55
2023-01-26T09:48:57.807Z,17.55
2023-01-26T09:51:27.524Z,16.25
2023-01-26T09:53:56.672Z,17.73
2023-01-26T09:56:28.172Z,18.83
2023-01-26T09:58:57.149Z,16.30
2023-01-26T10:01:31.595Z,16.50
2023-01-26T10:04:03.238Z,16.10
2023-01-26T10:06:32.144Z,17.23
2023-01-26T10:09:09.358Z,19.25
2023-01-26T10:11:38.376Z,16.27
2023-01-26T10:14:08.753Z,17.60
2023-01-26T10:16:38.000Z,16.23
2023-01-26T10:19:06.744Z,16.20
2023-01-26T10:21:36.477Z,16.42
2023-01-26T10:24:05.639Z,15.35
2023-01-26T10:26:34.346Z,16.65
2023-01-26T10:29:02.362Z,16.38
2023-01-26T10:31:32.382Z,18.52
2023-01-26T10:34:03.200Z,16.60
2023-01-26T10:36:31.818Z,16.33
2023-01-26T10:39:05.478Z,17.13
2023-01-26T10:41:33.514Z,17.98
2023-01-26T10:44:02.575Z,18.08
2023-01-26T10:46:32.514Z,17.58
2023-01-26T10:49:03.704Z,18.85
2023-01-26T10:51:32.467Z,17.90
2023-01-26T10:54:22.521Z,18.23
2023-01-26T10:56:52.287Z,17.83
2023-01-26T10:59:39.038Z,50.35
2023-01-26T11:02:21.816Z,28.77
2023-01-26T11:05:05.321Z,34.22
2023-01-26T11:07:35.116Z,44.40
2023-01-26T11:10:18.558Z,37.63
2023-01-26T11:12:46.620Z,41.65
2023-01-26T11:15:17.840Z,41.28
2023-01-26T11:17:52.562Z,34.97
2023-01-26T11:20:47.634Z,32.75
2023-01-26T11:23:20.483Z,36.40
2023-01-26T11:25:55.637Z,33.47
2023-01-26T11:28:32.328Z,30.05
2023-01-26T11:31:10.605Z,32.42
2023-01-26T11:33:40.912Z,29.92
2023-01-26T11:36:13.374Z,26.80
2023-01-26T11:38:41.885Z,29.30
2023-01-26T11:41:21.219Z,27.65
2023-01-26T11:43:56.672Z,29.58
2023-01-26T11:46:31.858Z,26.55
2023-01-26T11:49:05.021Z,25.05
2023-01-26T11:51:41.382Z,28.00
2023-01-26T11:54:19.983Z,26.58
2023-01-26T11:56:50.960Z,22.75
2023-01-26T11:59:20.073Z,23.38
2023-01-26T12:01:50.232Z,23.13
2023-01-26T12:04:20.068Z,21.10
2023-01-26T12:06:53.594Z,21.25
2023-01-26T12:09:22.836Z,27.80
2023-01-26T12:11:54.373Z,24.35
2023-01-26T12:14:23.298Z,24.00
2023-01-26T12:17:15.474Z,23.45
2023-01-26T12:19:47.606Z,24.60
2023-01-26T12:22:19.381Z,27.00
2023-01-26T12:25:16.541Z,20.75
2023-01-26T12:27:41.846Z,19.75
2023-01-26T12:30:19.843Z,19.30
2023-01-26T12:32:47.711Z,24.50
2023-01-26T12:35:15.738Z,22.52
2023-01-26T12:37:48.292Z,19.73
2023-01-26T12:40:30.029Z,22.55
2023-01-26T12:43:03.558Z,19.33
2023-01-26T12:45:33.246Z,23.13
2023-01-26T12:48:06.068Z,19.52
2023-01-26T12:50:36.823Z,18.58
2023-01-26T12:53:07.976Z,21.60
2023-01-26T12:55:37.753Z,16.40
2023-01-26T12:58:09.933Z,15.00
2023-01-26T13:00:38.195Z,15.85
2023-01-26T13:03:08.771Z,16.33
2023-01-26T13:05:37.352Z,20.48
2023-01-26T13:08:51.347Z,17.45
2023-01-26T13:11:47.374Z,16.58
2023-01-26T13:14:26.369Z,18.23
2023-01-26T13:16:54.549Z,14.52
2023-01-26T13:19:38.191Z,18.38
2023-01-26T13:22:20.526Z,23.10
2023-01-26T13:24:49.985Z,37.03
2023-01-26T13:27:31.083Z,34.20
2023-01-26T13:29:58.964Z,44.22
2023-01-26T13:33:03.120Z,44.78
2023-01-26T13:35:31.161Z,34.63
2023-01-26T13:38:03.137Z,35.63
2023-01-26T13:40:34.565Z,30.65
2023-01-26T13:43:14.605Z,30.17
2023-01-26T13:45:56.717Z,31.17
2023-01-26T13:48:34.979Z,28.23
2023-01-26T13:51:02.890Z,31.20
2023-01-26T13:53:38.063Z,27.77
2023-01-26T13:56:08.960Z,25.95
2023-01-26T13:58:36.880Z,28.92
2023-01-26T14:01:05.947Z,25.13
2023-01-26T14:03:34.055Z,21.00
2023-01-26T14:06:03.072Z,26.98
2023-01-26T14:08:31.310Z,26.40
2023-01-26T14:10:59.344Z,25.13
2023-01-26T14:13:31.473Z,22.65
2023-01-26T14:16:00.577Z,21.20
2023-01-26T14:18:28.649Z,19.67
2023-01-26T14:21:00.287Z,18.02
2023-01-26T14:23:28.820Z,20.30
2023-01-26T14:26:01.161Z,20.02
2023-01-26T14:28:32.248Z,20.08
2023-01-26T14:31:03.144Z,18.20
2023-01-26T14:33:31.089Z,25.23
2023-01-26T14:36:01.420Z,16.90
2023-01-26T14:38:29.695Z,15.95
2023-01-26T14:40:59.070Z,20.70
2023-01-26T14:43:27.232Z,16.40
2023-01-26T14:45:59.749Z,16.77
2023-01-26T14:48:29.784Z,18.10
2023-01-26T14:50:57.665Z,18.48
2023-01-26T14:53:25.800Z,17.02
2023-01-26T14:55:53.784Z,17.80
2023-01-26T14:58:23.692Z,18.20
2023-01-26T15:00:51.741Z,15.98
2023-01-26T15:03:25.110Z,15.65
2023-01-26T15:06:05.773Z,17.98
2023-01-26T15:08:36.108Z,16.20
2023-01-26T15:11:21.674Z,16.83
2023-01-26T15:13:52.754Z,17.52
2023-01-26T15:16:22.437Z,14.70
2023-01-26T15:19:00.380Z,18.13
2023-01-26T15:21:32.705Z,14.82
2023-01-26T15:24:00.768Z,14.02
2023-01-26T15:26:29.513Z,15.50
2023-01-26T15:28:59.175Z,16.10
2023-01-26T15:31:30.393Z,19.50
2023-01-26T15:34:01.511Z,15.82
2023-01-26T15:36:32.519Z,19.33
2023-01-26T15:39:02.293Z,17.58
2023-01-26T15:41:30.221Z,17.15
2023-01-26T15:43:58.474Z,13.65
2023-01-26T15:46:26.668Z,20.50
2023-01-26T15:48:54.712Z,16.30
2023-01-26T15:51:23.911Z,19.50
2023-01-26T15:53:51.812Z,16.77
2023-01-26T15:56:19.709Z,22.38
2023-01-26T15:58:47.593Z,19.13
2023-01-26T16:01:16.891Z,17.23
2023-01-26T16:03:45.160Z,19.65
2023-01-26T16:06:24.112Z,20.70
2023-01-26T16:08:54.461Z,15.07
2023-01-26T16:11:22.627Z,21.15
2023-01-26T16:14:02.277Z,18.33
2023-01-26T16:16:31.096Z,18.33
2023-01-26T16:18:59.068Z,21.10
2023-01-26T16:21:30.241Z,18.52
2023-01-26T16:23:58.263Z,17.52
2023-01-26T16:26:26.535Z,16.65
2023-01-26T16:28:54.515Z,17.02
2023-01-26T16:31:23.549Z,17.55
2023-01-26T16:33:51.630Z,13.18
2023-01-26T16:36:20.244Z,17.15
2023-01-26T16:38:49.859Z,18.23
2023-01-26T16:41:20.497Z,16.85
2023-01-26T16:43:48.380Z,16.67
2023-01-26T16:46:16.345Z,16.98
2023-01-26T16:48:44.227Z,17.45
2023-01-26T16:51:17.443Z,16.42
2023-01-26T16:53:45.382Z,19.27
2023-01-26T16:56:15.162Z,20.17
2023-01-26T16:58:43.102Z,20.55
2023-01-26T17:01:17.461Z,21.17
2023-01-26T17:03:45.440Z,23.90
2023-01-26T17:06:13.482Z,18.63
2023-01-26T17:08:41.484Z,15.25
2023-01-26T17:11:14.348Z,17.65
2023-01-26T17:13:42.342Z,19.48
2023-01-26T17:16:12.651Z,21.38
2023-01-26T17:18:40.595Z,18.83
2023-01-26T17:21:09.334Z,16.65
2023-01-26T17:23:41.570Z,18.05
2023-01-26T17:26:10.155Z,17.90
2023-01-26T17:28:39.416Z,18.08
2023-01-26T17:31:10.766Z,18.85
2023-01-26T17:33:38.847Z,16.05
2023-01-26T17:36:07.717Z,16.75
2023-01-26T17:38:35.614Z,16.77
2023-01-26T17:41:03.627Z,16.38
2023-01-26T17:43:31.685Z,18.17
2023-01-26T17:46:04.832Z,17.35
2023-01-26T17:48:32.849Z,16.33
2023-01-26T17:51:00.756Z,18.20
2023-01-26T17:53:28.878Z,19.52
2023-01-26T17:55:56.772Z,17.02
2023-01-26T17:58:24.767Z,16.67
2023-01-26T18:00:52.696Z,16.20
2023-01-26T18:03:26.244Z,18.23
2023-01-26T18:05:54.320Z,16.80
2023-01-26T18:08:22.268Z,19.17
2023-01-26T18:10:50.244Z,20.95
2023-01-26T18:13:18.157Z,17.70
2023-01-26T18:15:46.136Z,16.52
2023-01-26T18:18:14.538Z,21.17
2023-01-26T18:20:43.775Z,18.70
2023-01-26T18:23:11.650Z,16.92
2023-01-26T18:25:40.207Z,17.40
2023-01-26T18:28:08.380Z,16.75
2023-01-26T18:30:36.380Z,15.40
2023-01-26T18:33:04.348Z,20.52
2023-01-26T18:35:34.139Z,15.98
2023-01-26T18:38:03.375Z,16.98
2023-01-26T18:40:31.804Z,17.40
2023-01-26T18:42:59.750Z,17.35
2023-01-26T18:45:27.627Z,15.65
2023-01-26T18:47:55.513Z,16.77
2023-01-26T18:50:23.349Z,17.63
2023-01-26T18:52:52.072Z,16.35
2023-01-26T18:55:21.286Z,14.55
2023-01-26T18:57:50.774Z,21.10
2023-01-26T19:00:19.618Z,18.38
2023-01-26T19:02:47.587Z,15.25
2023-01-26T19:05:15.767Z,16.98
2023-01-26T19:07:44.076Z,15.45
2023-01-26T19:10:12.359Z,15.23
2023-01-26T19:12:41.576Z,17.05
2023-01-26T19:15:11.111Z,16.35
2023-01-26T19:17:39.270Z,19.15
2023-01-26T19:20:08.298Z,16.27
2023-01-26T19:22:36.703Z,15.63
2023-01-26T19:25:04.948Z,18.20
2023-01-26T19:27:33.065Z,16.42
2023-01-26T19:30:02.368Z,15.80
2023-01-26T19:32:30.396Z,18.25
2023-01-26T19:34:58.456Z,16.48
2023-01-26T19:37:26.350Z,15.63
2023-01-26T19:39:54.392Z,17.08
2023-01-26T19:42:22.408Z,16.30
2023-01-26T19:44:50.322Z,18.02
2023-01-26T19:47:20.085Z,17.40
2023-01-26T19:49:48.008Z,15.65
2023-01-26T19:52:15.978Z,17.58
2023-01-26T19:54:43.894Z,18.85
2023-01-26T19:57:11.927Z,15.77
2023-01-26T19:59:39.784Z,16.95
2023-01-26T20:02:08.092Z,17.70
2023-01-26T20:04:37.423Z,16.20
2023-01-26T20:07:06.726Z,18.40
2023-01-26T20:09:34.826Z,16.42
2023-01-26T20:12:02.984Z,14.82
2023-01-26T20:14:31.163Z,16.48
2023-01-26T20:16:59.070Z,17.63
2023-01-26T20:19:27.972Z,17.42
2023-01-26T20:21:57.223Z,43.25
2023-01-26T20:24:26.261Z,41.67
2023-01-26T20:26:54.244Z,33.60
2023-01-26T20:29:22.310Z,37.42
2023-01-26T20:31:52.904Z,27.73
2023-01-26T20:34:21.922Z,29.40
2023-01-26T20:36:50.117Z,34.17
2023-01-26T20:39:25.213Z,34.35
2023-01-26T20:41:53.408Z,29.95
2023-01-26T20:44:21.452Z,25.45
2023-01-26T20:46:50.121Z,29.13
2023-01-26T20:49:18.769Z,29.48
2023-01-26T20:51:47.165Z,21.27
2023-01-26T20:54:16.790Z,25.73
2023-01-26T20:56:46.724Z,19.35
2023-01-26T20:59:14.728Z,20.35
2023-01-26T21:01:42.822Z,23.40
2023-01-26T21:04:10.734Z,19.52
2023-01-26T21:06:41.772Z,21.38
2023-01-26T21:09:12.652Z,20.67
2023-01-26T21:11:40.900Z,23.25
2023-01-26T21:14:12.119Z,21.08
2023-01-26T21:16:40.411Z,22.63
2023-01-26T21:19:08.543Z,18.45
2023-01-26T21:21:36.494Z,23.98
2023-01-26T21:24:04.600Z,21.38
2023-01-26T21:26:33.070Z,22.33
2023-01-26T21:29:01.205Z,22.85
2023-01-26T21:31:31.698Z,23.45
2023-01-26T21:34:00.088Z,16.60
2023-01-26T21:36:29.148Z,24.25
2023-01-26T21:38:57.707Z,17.60
2023-01-26T21:41:44.812Z,18.13
2023-01-26T21:44:13.861Z,16.40
2023-01-26T21:46:43.336Z,22.02
2023-01-26T21:49:11.285Z,16.52
2023-01-26T21:51:55.814Z,17.45
2023-01-26T21:54:23.803Z,16.60
2023-01-26T21:56:51.680Z,19.92
2023-01-26T21:59:18.684Z,23.98
2023-01-26T22:01:48.686Z,17.80
2023-01-26T22:04:17.693Z,17.63
2023-01-26T22:06:45.728Z,18.67
2023-01-26T22:09:14.872Z,28.60
2023-01-26T22:11:42.799Z,16.83
2023-01-26T22:14:14.483Z,16.20
2023-01-26T22:16:42.553Z,18.63
2023-01-26T22:19:12.170Z,18.77
2023-01-26T22:21:40.251Z,17.95
2023-01-26T22:24:11.310Z,16.15
2023-01-26T22:26:39.793Z,17.63
2023-01-26T22:29:07.922Z,16.67
2023-01-26T22:31:35.864Z,18.55
2023-01-26T22:34:04.159Z,15.45
2023-01-26T22:36:33.680Z,13.68
2023-01-26T22:39:01.552Z,17.83
2023-01-26T22:41:29.996Z,16.30
2023-01-26T22:43:58.900Z,21.67
2023-01-26T22:46:27.351Z,19.33
2023-01-26T22:48:57.117Z,17.05
2023-01-26T22:51:26.388Z,15.50
2023-01-26T22:53:55.683Z,17.23
2023-01-26T22:56:23.568Z,16.70
2023-01-26T22:58:58.080Z,15.13
2023-01-26T23:01:26.941Z,15.77
2023-01-26T23:03:55.480Z,15.73
2023-01-26T23:06:23.573Z,17.05
2023-01-26T23:08:51.437Z,15.90
2023-01-26T23:11:21.810Z,17.95
2023-01-26T23:13:50.432Z,18.90
2023-01-26T23:16:18.441Z,18.33
2023-01-26T23:18:46.391Z,19.90
2023-01-26T23:21:14.980Z,17.23
2023-01-26T23:23:42.913Z,18.63
2023-01-26T23:26:10.902Z,15.90
2023-01-26T23:28:41.054Z,16.92
2023-01-26T23:31:09.335Z,16.25
2023-01-26T23:33:37.267Z,17.23
2023-01-26T23:36:06.049Z,20.75
2023-01-26T23:38:33.964Z,15.77
2023-01-26T23:41:01.818Z,17.50
2023-01-26T23:43:29.677Z,13.70
2023-01-26T23:45:58.887Z,17.67
2023-01-26T23:48:26.899Z,17.70
2023-01-26T23:50:57.938Z,18.42
2023-01-26T23:53:25.814Z,15.13
2023-01-26T23:55:53.684Z,20.80
2023-01-26T23:58:21.647Z,20.15
